createdAt,value
2017-12-11T00:00:26.311Z,22.95
2017-12-11T00:00:54.538Z,22.99
2017-12-11T00:01:22.650Z,23.01
2017-12-11T00:01:50.774Z,23.01
2017-12-11T00:02:18.713Z,23.02
2017-12-11T00:02:46.890Z,23.07
2017-12-11T00:03:14.940Z,23.1
2017-12-11T00:03:43.077Z,23.07
2017-12-11T00:04:11.079Z,23.04
2017-12-11T00:04:39.194Z,23.07
2017-12-11T00:05:07.334Z,23.04
2017-12-11T00:05:35.244Z,23.13
2017-12-11T00:06:03.397Z,23.11
2017-12-11T00:06:31.430Z,23.2
2017-12-11T00:06:59.556Z,23.14
2017-12-11T00:07:27.600Z,23.23
2017-12-11T00:07:56.353Z,23.2
2017-12-11T00:08:24.397Z,23.2
2017-12-11T00:08:53.005Z,23.17
2017-12-11T00:09:21.044Z,23.21
2017-12-11T00:09:49.084Z,23.17
2017-12-11T00:10:17.191Z,23.2
2017-12-11T00:10:45.316Z,23.18
2017-12-11T00:11:13.384Z,23.17
2017-12-11T00:11:41.613Z,23.18
2017-12-11T00:12:09.668Z,23.18
2017-12-11T00:12:37.704Z,23.2
2017-12-11T00:13:05.822Z,23.25
2017-12-11T00:13:34.160Z,23.23
2017-12-11T00:14:02.331Z,23.23
2017-12-11T00:14:30.352Z,23.23
2017-12-11T00:14:58.368Z,23.2
2017-12-11T00:15:26.487Z,23.17
2017-12-11T00:15:54.527Z,23.21
2017-12-11T00:16:22.659Z,23.21
2017-12-11T00:16:50.786Z,23.18
2017-12-11T00:17:19.075Z,23.16
2017-12-11T00:17:47.202Z,23.16
2017-12-11T00:18:15.252Z,23.17
2017-12-11T00:18:43.399Z,23.16
2017-12-11T00:19:11.515Z,23.14
2017-12-11T00:19:39.901Z,23.13
2017-12-11T00:20:08.036Z,23.08
2017-12-11T00:20:35.974Z,23.1
2017-12-11T00:21:04.012Z,23.07
2017-12-11T00:21:32.103Z,23.04
2017-12-11T00:22:00.226Z,23.04
2017-12-11T00:22:28.321Z,23.08
2017-12-11T00:22:56.432Z,23.1
2017-12-11T00:23:24.477Z,23.02
2017-12-11T00:23:52.594Z,22.99
2017-12-11T00:24:20.509Z,22.95
2017-12-11T00:24:48.647Z,22.96
2017-12-11T00:25:16.772Z,22.93
2017-12-11T00:25:44.793Z,22.93
2017-12-11T00:26:12.827Z,22.95
2017-12-11T00:26:40.945Z,22.91
2017-12-11T00:27:09.099Z,22.98
2017-12-11T00:27:37.238Z,22.89
2017-12-11T00:28:05.310Z,22.89
2017-12-11T00:28:33.474Z,22.78
2017-12-11T00:29:01.522Z,22.8
2017-12-11T00:29:29.726Z,22.8
2017-12-11T00:29:57.883Z,22.81
2017-12-11T00:30:26.032Z,22.83
2017-12-11T00:30:54.155Z,22.84
2017-12-11T00:31:22.336Z,22.78
2017-12-11T00:31:50.365Z,22.88
2017-12-11T00:32:18.421Z,22.77
2017-12-11T00:32:46.523Z,22.78
2017-12-11T00:33:14.659Z,22.83
2017-12-11T00:33:42.696Z,22.78
2017-12-11T00:34:10.761Z,22.81
2017-12-11T00:34:38.786Z,22.88
2017-12-11T00:35:06.921Z,22.83
2017-12-11T00:35:34.878Z,22.88
2017-12-11T00:36:02.906Z,22.84
2017-12-11T00:36:31.043Z,22.83
2017-12-11T00:36:59.197Z,22.81
2017-12-11T00:37:27.294Z,22.86
2017-12-11T00:37:55.307Z,22.91
2017-12-11T00:38:23.309Z,22.88
2017-12-11T00:38:51.426Z,22.78
2017-12-11T00:39:19.475Z,22.73
2017-12-11T00:39:47.599Z,22.71
2017-12-11T00:40:15.622Z,22.74
2017-12-11T00:40:43.730Z,22.74
2017-12-11T00:41:11.831Z,22.77
2017-12-11T00:41:39.937Z,22.74
2017-12-11T00:42:07.872Z,22.74
2017-12-11T00:42:36.004Z,22.76
2017-12-11T00:43:04.128Z,22.77
2017-12-11T00:43:32.150Z,22.7
2017-12-11T00:44:00.308Z,22.71
2017-12-11T00:44:28.300Z,22.7
2017-12-11T00:44:56.552Z,22.67
2017-12-11T00:45:24.683Z,22.74
2017-12-11T00:45:52.626Z,22.67
2017-12-11T00:46:20.759Z,22.68
2017-12-11T00:46:48.785Z,22.63
2017-12-11T00:47:16.894Z,22.68
2017-12-11T00:47:45.047Z,22.53
2017-12-11T00:48:13.168Z,22.52
2017-12-11T00:48:41.275Z,22.53
2017-12-11T00:49:09.320Z,22.59
2017-12-11T00:49:37.347Z,22.58
2017-12-11T00:50:05.712Z,22.53
2017-12-11T00:50:34.615Z,22.51
2017-12-11T00:51:02.754Z,22.41
2017-12-11T00:51:30.774Z,22.46
2017-12-11T00:51:58.819Z,22.38
2017-12-11T00:52:26.954Z,22.38
2017-12-11T00:52:55.127Z,22.44
2017-12-11T00:53:23.303Z,22.43
2017-12-11T00:53:51.344Z,22.38
2017-12-11T00:54:19.465Z,22.44
2017-12-11T00:54:47.481Z,22.41
2017-12-11T00:55:15.621Z,22.36
2017-12-11T00:55:43.671Z,22.37
2017-12-11T00:56:11.612Z,22.38
2017-12-11T00:56:39.758Z,22.38
2017-12-11T00:57:07.879Z,22.25
2017-12-11T00:57:36.006Z,22.31
2017-12-11T00:58:04.022Z,22.3
2017-12-11T00:58:32.166Z,22.22
2017-12-11T00:59:00.274Z,22.25
2017-12-11T00:59:28.404Z,22.16
2017-12-11T00:59:56.674Z,22.19
2017-12-11T01:00:24.859Z,22.21
2017-12-11T01:00:53.007Z,22.19
2017-12-11T01:01:21.144Z,22.18
2017-12-11T01:01:49.176Z,22.14
2017-12-11T01:02:17.110Z,22.18
2017-12-11T01:02:45.147Z,22.15
2017-12-11T01:03:13.285Z,22.1
2017-12-11T01:03:41.312Z,22.15
2017-12-11T01:04:09.440Z,22.07
2017-12-11T01:04:37.568Z,22.07
2017-12-11T01:05:05.711Z,22.03
2017-12-11T01:05:33.946Z,22.08
2017-12-11T01:06:02.784Z,22.06
2017-12-11T01:06:30.824Z,22.04
2017-12-11T01:06:58.954Z,22.04
2017-12-11T01:07:27.061Z,22.01
2017-12-11T01:07:55.207Z,22.06
2017-12-11T01:08:23.317Z,21.99
2017-12-11T01:08:51.455Z,22.08
2017-12-11T01:09:19.501Z,21.99
2017-12-11T01:09:47.644Z,22.01
2017-12-11T01:10:15.765Z,22.01
2017-12-11T01:10:43.877Z,22.03
2017-12-11T01:11:12.012Z,22.06
2017-12-11T01:11:40.157Z,22.07
2017-12-11T01:12:08.261Z,22.07
2017-12-11T01:12:36.379Z,22.04
2017-12-11T01:13:04.404Z,22.03
2017-12-11T01:13:32.542Z,22.04
2017-12-11T01:14:00.664Z,22
2017-12-11T01:14:28.805Z,22.07
2017-12-11T01:14:56.947Z,22.04
2017-12-11T01:15:25.050Z,22.07
2017-12-11T01:15:53.208Z,22.07
2017-12-11T01:16:21.314Z,22.07
2017-12-11T01:16:49.256Z,22.03
2017-12-11T01:17:17.395Z,22.12
2017-12-11T01:17:45.534Z,22.06
2017-12-11T01:18:13.590Z,21.99
2017-12-11T01:18:41.705Z,22.01
2017-12-11T01:19:09.835Z,21.99
2017-12-11T01:19:37.975Z,22.04
2017-12-11T01:20:06.369Z,22.12
2017-12-11T01:20:34.314Z,22.06
2017-12-11T01:21:02.449Z,22.15
2017-12-11T01:21:30.467Z,22.04
2017-12-11T01:21:58.597Z,22.1
2017-12-11T01:22:26.646Z,22.01
2017-12-11T01:22:54.780Z,22.03
2017-12-11T01:23:22.891Z,22.14
2017-12-11T01:23:51.001Z,22.04
2017-12-11T01:24:19.044Z,21.97
2017-12-11T01:24:47.171Z,22.06
2017-12-11T01:25:15.306Z,22.15
2017-12-11T01:25:43.439Z,22.08
2017-12-11T01:26:11.582Z,22.12
2017-12-11T01:26:39.715Z,22.03
2017-12-11T01:27:07.859Z,22.18
2017-12-11T01:27:35.980Z,22.04
2017-12-11T01:28:04.132Z,22.03
2017-12-11T01:28:32.255Z,22.06
2017-12-11T01:29:00.386Z,22.08
2017-12-11T01:29:28.397Z,22.07
2017-12-11T01:29:56.515Z,22.01
2017-12-11T01:30:24.742Z,22.01
2017-12-11T01:30:52.896Z,22.03
2017-12-11T01:31:21.009Z,22.07
2017-12-11T01:31:49.131Z,21.94
2017-12-11T01:32:17.072Z,21.99
2017-12-11T01:32:45.218Z,21.84
2017-12-11T01:33:13.336Z,21.94
2017-12-11T01:33:41.485Z,21.91
2017-12-11T01:34:09.503Z,21.99
2017-12-11T01:34:37.477Z,21.99
2017-12-11T01:35:05.598Z,21.99
2017-12-11T01:35:33.617Z,21.96
2017-12-11T01:36:01.739Z,21.99
2017-12-11T01:36:29.861Z,22.01
2017-12-11T01:36:57.983Z,21.96
2017-12-11T01:37:26.042Z,21.97
2017-12-11T01:37:54.158Z,21.94
2017-12-11T01:38:22.310Z,21.96
2017-12-11T01:38:50.441Z,21.96
2017-12-11T01:39:18.460Z,22.01
2017-12-11T01:39:46.503Z,21.94
2017-12-11T01:40:14.553Z,21.97
2017-12-11T01:40:42.709Z,22.01
2017-12-11T01:41:10.865Z,22.04
2017-12-11T01:41:39.001Z,22.01
2017-12-11T01:42:07.014Z,22.01
2017-12-11T01:42:35.132Z,22.04
2017-12-11T01:43:03.163Z,22.03
2017-12-11T01:43:31.268Z,22.04
2017-12-11T01:43:59.403Z,22
2017-12-11T01:44:27.530Z,22.06
2017-12-11T01:44:55.623Z,22.03
2017-12-11T01:45:23.876Z,22.01
2017-12-11T01:45:52.002Z,22.06
2017-12-11T01:46:20.830Z,22.08
2017-12-11T01:46:48.957Z,22.03
2017-12-11T01:47:16.985Z,22.08
2017-12-11T01:47:44.994Z,22.01
2017-12-11T01:48:13.124Z,21.99
2017-12-11T01:48:41.273Z,22.04
2017-12-11T01:49:09.418Z,22
2017-12-11T01:49:37.562Z,21.97
2017-12-11T01:50:05.709Z,21.99
2017-12-11T01:50:34.000Z,21.97
2017-12-11T01:51:02.113Z,21.96
2017-12-11T01:51:30.245Z,21.94
2017-12-11T01:51:58.398Z,21.97
2017-12-11T01:52:27.400Z,22.04
2017-12-11T01:52:55.525Z,22
2017-12-11T01:53:23.657Z,21.99
2017-12-11T01:53:51.786Z,22.07
2017-12-11T01:54:19.782Z,21.96
2017-12-11T01:54:47.822Z,21.96
2017-12-11T01:55:15.948Z,22
2017-12-11T01:55:44.078Z,21.99
2017-12-11T01:56:12.222Z,22.01
2017-12-11T01:56:40.358Z,21.94
2017-12-11T01:57:08.499Z,22.04
2017-12-11T01:57:36.646Z,21.85
2017-12-11T01:58:04.679Z,22.07
2017-12-11T01:58:32.808Z,21.99
2017-12-11T01:59:00.958Z,22.06
2017-12-11T01:59:28.871Z,22.01
2017-12-11T01:59:56.985Z,22.03
2017-12-11T02:00:24.992Z,21.97
2017-12-11T02:00:53.140Z,22.01
2017-12-11T02:01:21.274Z,21.94
2017-12-11T02:01:49.335Z,21.96
2017-12-11T02:02:17.461Z,21.89
2017-12-11T02:02:45.583Z,22
2017-12-11T02:03:13.615Z,21.89
2017-12-11T02:03:41.653Z,21.99
2017-12-11T02:04:09.783Z,22.01
2017-12-11T02:04:38.172Z,21.97
2017-12-11T02:05:06.306Z,21.94
2017-12-11T02:05:34.672Z,21.94
2017-12-11T02:06:02.779Z,21.96
2017-12-11T02:06:30.926Z,21.92
2017-12-11T02:06:59.498Z,21.88
2017-12-11T02:07:27.864Z,21.84
2017-12-11T02:07:56.014Z,21.91
2017-12-11T02:08:24.170Z,21.88
2017-12-11T02:08:52.831Z,21.92
2017-12-11T02:09:20.863Z,21.75
2017-12-11T02:09:48.920Z,21.81
2017-12-11T02:10:16.907Z,21.8
2017-12-11T02:10:45.031Z,21.83
2017-12-11T02:11:13.265Z,21.8
2017-12-11T02:11:41.281Z,21.91
2017-12-11T02:12:09.322Z,21.85
2017-12-11T02:12:37.467Z,21.78
2017-12-11T02:13:05.515Z,21.88
2017-12-11T02:13:33.672Z,21.75
2017-12-11T02:14:01.727Z,21.83
2017-12-11T02:14:30.283Z,21.81
2017-12-11T02:14:58.431Z,21.89
2017-12-11T02:15:26.500Z,21.89
2017-12-11T02:15:55.031Z,21.88
2017-12-11T02:16:23.514Z,21.77
2017-12-11T02:16:51.786Z,21.8
2017-12-11T02:17:19.841Z,21.81
2017-12-11T02:17:47.868Z,21.78
2017-12-11T02:18:16.030Z,21.78
2017-12-11T02:18:44.191Z,21.81
2017-12-11T02:19:12.371Z,21.83
2017-12-11T02:19:40.827Z,21.78
2017-12-11T02:20:09.116Z,21.74
2017-12-11T02:20:37.310Z,21.81
2017-12-11T02:21:05.906Z,21.84
2017-12-11T02:21:34.029Z,21.89
2017-12-11T02:22:02.160Z,21.83
2017-12-11T02:22:30.423Z,21.88
2017-12-11T02:22:58.432Z,21.84
2017-12-11T02:23:27.096Z,21.88
2017-12-11T02:23:55.129Z,21.88
2017-12-11T02:24:23.285Z,21.94
2017-12-11T02:24:51.655Z,21.88
2017-12-11T02:25:19.603Z,21.92
2017-12-11T02:25:47.715Z,21.89
2017-12-11T02:26:16.254Z,22.01
2017-12-11T02:26:44.403Z,21.99
2017-12-11T02:27:12.528Z,22.04
2017-12-11T02:27:40.664Z,22
2017-12-11T02:28:08.800Z,21.99
2017-12-11T02:28:36.731Z,22.01
2017-12-11T02:29:04.740Z,22.07
2017-12-11T02:29:33.074Z,21.99
2017-12-11T02:30:01.120Z,22.07
2017-12-11T02:30:29.159Z,21.97
2017-12-11T02:30:58.195Z,21.96
2017-12-11T02:31:26.331Z,21.99
2017-12-11T02:31:54.338Z,22.04
2017-12-11T02:32:22.817Z,22.06
2017-12-11T02:32:50.950Z,22.04
2017-12-11T02:33:18.883Z,22.03
2017-12-11T02:33:47.032Z,22
2017-12-11T02:34:14.986Z,21.96
2017-12-11T02:34:43.132Z,22.03
2017-12-11T02:35:11.484Z,22.01
2017-12-11T02:35:39.532Z,21.99
2017-12-11T02:36:07.701Z,22.04
2017-12-11T02:36:35.838Z,21.99
2017-12-11T02:37:03.938Z,22.03
2017-12-11T02:37:32.091Z,21.94
2017-12-11T02:38:00.649Z,21.97
2017-12-11T02:38:28.775Z,21.97
2017-12-11T02:38:57.307Z,22
2017-12-11T02:39:25.307Z,21.99
2017-12-11T02:39:53.424Z,21.99
2017-12-11T02:40:21.465Z,21.92
2017-12-11T02:40:49.608Z,21.88
2017-12-11T02:41:18.057Z,21.88
2017-12-11T02:41:46.068Z,21.92
2017-12-11T02:42:14.140Z,21.88
2017-12-11T02:42:42.304Z,21.91
2017-12-11T02:43:10.454Z,21.85
2017-12-11T02:43:38.570Z,21.89
2017-12-11T02:44:06.702Z,21.88
2017-12-11T02:44:35.040Z,21.75
2017-12-11T02:45:03.071Z,21.74
2017-12-11T02:45:31.526Z,21.88
2017-12-11T02:45:59.675Z,21.88
2017-12-11T02:46:27.912Z,21.88
2017-12-11T02:46:55.932Z,21.91
2017-12-11T02:47:23.960Z,21.89
2017-12-11T02:47:52.062Z,21.88
2017-12-11T02:48:20.111Z,21.85
2017-12-11T02:48:48.454Z,21.92
2017-12-11T02:49:16.585Z,21.97
2017-12-11T02:49:44.717Z,21.92
2017-12-11T02:50:12.786Z,21.92
2017-12-11T02:50:40.896Z,21.85
2017-12-11T02:51:09.040Z,21.85
2017-12-11T02:51:37.310Z,21.88
2017-12-11T02:52:05.340Z,21.85
2017-12-11T02:52:33.494Z,21.94
2017-12-11T02:53:01.590Z,21.88
2017-12-11T02:53:29.916Z,21.84
2017-12-11T02:53:58.044Z,21.91
2017-12-11T02:54:26.083Z,21.89
2017-12-11T02:54:54.160Z,21.96
2017-12-11T02:55:22.275Z,21.75
2017-12-11T02:55:50.442Z,21.85
2017-12-11T02:56:18.578Z,21.75
2017-12-11T02:56:47.057Z,21.74
2017-12-11T02:57:15.094Z,21.84
2017-12-11T02:57:43.248Z,21.83
2017-12-11T02:58:11.365Z,21.81
2017-12-11T02:58:39.405Z,21.81
2017-12-11T02:59:07.519Z,21.81
2017-12-11T02:59:35.631Z,21.78
2017-12-11T03:00:03.773Z,21.74
2017-12-11T03:00:31.900Z,21.75
2017-12-11T03:01:00.038Z,21.72
2017-12-11T03:01:28.331Z,21.72
2017-12-11T03:01:56.685Z,21.66
2017-12-11T03:02:24.811Z,21.77
2017-12-11T03:02:52.937Z,21.68
2017-12-11T03:03:21.092Z,21.69
2017-12-11T03:03:49.219Z,21.65
2017-12-11T03:04:17.273Z,21.66
2017-12-11T03:04:45.291Z,21.69
2017-12-11T03:05:13.356Z,21.7
2017-12-11T03:05:41.387Z,21.72
2017-12-11T03:06:09.424Z,21.68
2017-12-11T03:06:37.475Z,21.69
2017-12-11T03:07:05.634Z,21.75
2017-12-11T03:07:33.789Z,21.69
2017-12-11T03:08:01.918Z,21.68
2017-12-11T03:08:29.964Z,21.68
2017-12-11T03:08:58.043Z,21.68
2017-12-11T03:09:26.073Z,21.69
2017-12-11T03:09:54.213Z,21.72
2017-12-11T03:10:22.194Z,21.66
2017-12-11T03:10:50.352Z,21.68
2017-12-11T03:11:18.483Z,21.68
2017-12-11T03:11:46.642Z,21.7
2017-12-11T03:12:14.672Z,21.63
2017-12-11T03:12:42.683Z,21.62
2017-12-11T03:13:10.825Z,21.7
2017-12-11T03:13:38.947Z,21.69
2017-12-11T03:14:07.127Z,21.65
2017-12-11T03:14:35.255Z,21.65
2017-12-11T03:15:03.423Z,21.65
2017-12-11T03:15:31.340Z,21.7
2017-12-11T03:15:59.481Z,21.54
2017-12-11T03:16:27.605Z,21.62
2017-12-11T03:16:55.904Z,21.7
2017-12-11T03:17:24.032Z,21.69
2017-12-11T03:17:52.059Z,21.58
2017-12-11T03:18:20.182Z,21.68
2017-12-11T03:18:48.206Z,21.66
2017-12-11T03:19:16.330Z,21.59
2017-12-11T03:19:44.375Z,21.62
2017-12-11T03:20:12.489Z,21.58
2017-12-11T03:20:40.546Z,21.54
2017-12-11T03:21:08.678Z,21.53
2017-12-11T03:21:37.091Z,21.56
2017-12-11T03:22:05.229Z,21.6
2017-12-11T03:22:33.246Z,21.48
2017-12-11T03:23:01.290Z,21.48
2017-12-11T03:23:29.435Z,21.48
2017-12-11T03:23:57.459Z,21.48
2017-12-11T03:24:25.483Z,21.53
2017-12-11T03:24:53.629Z,21.47
2017-12-11T03:25:21.799Z,21.43
2017-12-11T03:25:49.939Z,21.48
2017-12-11T03:26:18.099Z,21.51
2017-12-11T03:26:46.360Z,21.48
2017-12-11T03:27:14.391Z,21.5
2017-12-11T03:27:42.547Z,21.45
2017-12-11T03:28:10.690Z,21.53
2017-12-11T03:28:38.601Z,21.5
2017-12-11T03:29:06.737Z,21.45
2017-12-11T03:29:34.779Z,21.54
2017-12-11T03:30:02.804Z,21.45
2017-12-11T03:30:30.762Z,21.51
2017-12-11T03:30:58.900Z,21.45
2017-12-11T03:31:27.057Z,21.44
2017-12-11T03:31:55.293Z,21.44
2017-12-11T03:32:23.411Z,21.47
2017-12-11T03:32:51.550Z,21.48
2017-12-11T03:33:19.567Z,21.51
2017-12-11T03:33:47.613Z,21.48
2017-12-11T03:34:15.738Z,21.53
2017-12-11T03:34:43.872Z,21.5
2017-12-11T03:35:11.991Z,21.48
2017-12-11T03:35:40.112Z,21.41
2017-12-11T03:36:08.230Z,21.53
2017-12-11T03:36:36.288Z,21.44
2017-12-11T03:37:04.397Z,21.5
2017-12-11T03:37:32.512Z,21.47
2017-12-11T03:38:00.639Z,21.43
2017-12-11T03:38:28.774Z,21.48
2017-12-11T03:38:56.895Z,21.41
2017-12-11T03:39:25.036Z,21.47
2017-12-11T03:39:53.186Z,21.47
2017-12-11T03:40:21.315Z,21.41
2017-12-11T03:40:49.452Z,21.43
2017-12-11T03:41:17.408Z,21.45
2017-12-11T03:41:45.523Z,21.41
2017-12-11T03:42:13.562Z,21.4
2017-12-11T03:42:41.713Z,21.44
2017-12-11T03:43:09.824Z,21.48
2017-12-11T03:43:37.859Z,21.45
2017-12-11T03:44:05.920Z,21.4
2017-12-11T03:44:34.066Z,21.41
2017-12-11T03:45:02.192Z,21.43
2017-12-11T03:45:30.333Z,21.4
2017-12-11T03:45:58.495Z,21.51
2017-12-11T03:46:26.530Z,21.41
2017-12-11T03:46:54.772Z,21.44
2017-12-11T03:47:22.891Z,21.4
2017-12-11T03:47:51.025Z,21.43
2017-12-11T03:48:18.946Z,21.37
2017-12-11T03:48:46.957Z,21.44
2017-12-11T03:49:14.879Z,21.45
2017-12-11T03:49:43.013Z,21.44
2017-12-11T03:50:11.060Z,21.38
2017-12-11T03:50:39.200Z,21.45
2017-12-11T03:51:07.312Z,21.4
2017-12-11T03:51:35.474Z,21.35
2017-12-11T03:52:03.882Z,21.35
2017-12-11T03:52:32.001Z,21.33
2017-12-11T03:53:00.600Z,21.28
2017-12-11T03:53:28.687Z,21.25
2017-12-11T03:53:56.810Z,21.28
2017-12-11T03:54:24.912Z,21.26
2017-12-11T03:54:52.960Z,21.29
2017-12-11T03:55:21.101Z,21.26
2017-12-11T03:55:49.138Z,21.25
2017-12-11T03:56:17.300Z,21.26
2017-12-11T03:56:45.436Z,21.23
2017-12-11T03:57:13.455Z,21.22
2017-12-11T03:57:41.593Z,21.26
2017-12-11T03:58:09.708Z,21.25
2017-12-11T03:58:37.828Z,21.23
2017-12-11T03:59:05.866Z,21.28
2017-12-11T03:59:33.990Z,21.19
2017-12-11T04:00:02.043Z,21.23
2017-12-11T04:00:30.065Z,21.19
2017-12-11T04:00:58.191Z,21.22
2017-12-11T04:01:26.311Z,21.15
2017-12-11T04:01:54.461Z,21.26
2017-12-11T04:02:22.572Z,21.26
2017-12-11T04:02:50.704Z,21.17
2017-12-11T04:03:18.855Z,21.26
2017-12-11T04:03:46.881Z,21.28
2017-12-11T04:04:14.918Z,21.19
2017-12-11T04:04:43.046Z,21.17
2017-12-11T04:05:11.070Z,21.22
2017-12-11T04:05:39.214Z,21.25
2017-12-11T04:06:07.218Z,21.15
2017-12-11T04:06:35.275Z,21.22
2017-12-11T04:07:03.302Z,21.2
2017-12-11T04:07:31.465Z,21.19
2017-12-11T04:07:59.587Z,21.15
2017-12-11T04:08:27.601Z,21.17
2017-12-11T04:08:55.726Z,21.17
2017-12-11T04:09:23.874Z,21.2
2017-12-11T04:09:51.996Z,21.2
2017-12-11T04:10:20.019Z,21.14
2017-12-11T04:10:48.169Z,21.15
2017-12-11T04:11:16.294Z,21.2
2017-12-11T04:11:44.424Z,21.19
2017-12-11T04:12:12.522Z,21.14
2017-12-11T04:12:40.574Z,21.1
2017-12-11T04:13:08.720Z,21.1
2017-12-11T04:13:36.642Z,21.1
2017-12-11T04:14:04.758Z,21.13
2017-12-11T04:14:32.886Z,21.07
2017-12-11T04:15:01.002Z,21.01
2017-12-11T04:15:29.034Z,21.1
2017-12-11T04:15:57.148Z,21.13
2017-12-11T04:16:25.317Z,21.05
2017-12-11T04:16:53.462Z,21.07
2017-12-11T04:17:21.687Z,21.11
2017-12-11T04:17:49.815Z,21.01
2017-12-11T04:18:17.924Z,21.07
2017-12-11T04:18:46.079Z,21.04
2017-12-11T04:19:14.189Z,21.01
2017-12-11T04:19:42.325Z,21.05
2017-12-11T04:20:10.451Z,21.05
2017-12-11T04:20:38.572Z,21.05
2017-12-11T04:21:06.709Z,20.96
2017-12-11T04:21:34.854Z,21.11
2017-12-11T04:22:02.891Z,20.98
2017-12-11T04:22:31.099Z,21.01
2017-12-11T04:22:59.122Z,20.89
2017-12-11T04:23:27.272Z,20.95
2017-12-11T04:23:55.404Z,20.86
2017-12-11T04:24:23.540Z,20.89
2017-12-11T04:24:51.682Z,20.88
2017-12-11T04:25:19.828Z,20.83
2017-12-11T04:25:47.955Z,20.86
2017-12-11T04:26:16.068Z,20.9
2017-12-11T04:26:44.107Z,20.86
2017-12-11T04:27:12.253Z,20.95
2017-12-11T04:27:40.432Z,20.88
2017-12-11T04:28:08.624Z,20.8
2017-12-11T04:28:36.672Z,20.82
2017-12-11T04:29:04.756Z,20.83
2017-12-11T04:29:32.775Z,20.71
2017-12-11T04:30:00.898Z,20.86
2017-12-11T04:30:28.810Z,20.83
2017-12-11T04:30:56.826Z,20.78
2017-12-11T04:31:24.950Z,20.78
2017-12-11T04:31:53.084Z,20.82
2017-12-11T04:32:21.196Z,20.78
2017-12-11T04:32:49.440Z,20.77
2017-12-11T04:33:17.474Z,20.78
2017-12-11T04:33:45.500Z,20.67
2017-12-11T04:34:13.456Z,20.68
2017-12-11T04:34:41.495Z,20.74
2017-12-11T04:35:09.636Z,20.71
2017-12-11T04:35:37.780Z,20.74
2017-12-11T04:36:05.814Z,20.71
2017-12-11T04:36:33.898Z,20.77
2017-12-11T04:37:02.018Z,20.73
2017-12-11T04:37:30.217Z,20.77
2017-12-11T04:37:58.307Z,20.78
2017-12-11T04:38:26.472Z,20.74
2017-12-11T04:38:54.628Z,20.83
2017-12-11T04:39:22.777Z,20.85
2017-12-11T04:39:50.913Z,20.85
2017-12-11T04:40:18.932Z,20.77
2017-12-11T04:40:46.984Z,20.71
2017-12-11T04:41:15.011Z,20.74
2017-12-11T04:41:43.103Z,20.83
2017-12-11T04:42:11.250Z,20.83
2017-12-11T04:42:39.406Z,20.88
2017-12-11T04:43:07.476Z,20.89
2017-12-11T04:43:35.414Z,20.88
2017-12-11T04:44:03.536Z,20.85
2017-12-11T04:44:31.679Z,20.89
2017-12-11T04:44:59.801Z,20.86
2017-12-11T04:45:27.751Z,20.9
2017-12-11T04:45:55.867Z,20.89
2017-12-11T04:46:24.009Z,20.89
2017-12-11T04:46:52.157Z,20.78
2017-12-11T04:47:20.292Z,20.85
2017-12-11T04:47:48.493Z,20.8
2017-12-11T04:48:16.447Z,20.89
2017-12-11T04:48:44.560Z,20.86
2017-12-11T04:49:12.719Z,20.88
2017-12-11T04:49:40.861Z,20.82
2017-12-11T04:50:08.997Z,20.85
2017-12-11T04:50:37.131Z,20.83
2017-12-11T04:51:05.253Z,20.71
2017-12-11T04:51:33.207Z,20.74
2017-12-11T04:52:01.343Z,20.71
2017-12-11T04:52:29.503Z,20.75
2017-12-11T04:52:57.906Z,20.78
2017-12-11T04:53:26.055Z,20.75
2017-12-11T04:53:54.087Z,20.74
2017-12-11T04:54:22.220Z,20.73
2017-12-11T04:54:50.363Z,20.78
2017-12-11T04:55:18.436Z,20.75
2017-12-11T04:55:46.599Z,20.75
2017-12-11T04:56:14.720Z,20.77
2017-12-11T04:56:42.867Z,20.78
2017-12-11T04:57:10.923Z,20.77
2017-12-11T04:57:39.037Z,20.77
2017-12-11T04:58:07.075Z,20.73
2017-12-11T04:58:35.021Z,20.74
2017-12-11T04:59:03.155Z,20.75
2017-12-11T04:59:31.275Z,20.73
2017-12-11T04:59:59.403Z,20.78
2017-12-11T05:00:27.428Z,20.66
2017-12-11T05:00:55.779Z,20.7
2017-12-11T05:01:23.799Z,20.73
2017-12-11T05:01:51.924Z,20.75
2017-12-11T05:02:20.071Z,20.71
2017-12-11T05:02:48.218Z,20.66
2017-12-11T05:03:16.359Z,20.74
2017-12-11T05:03:44.499Z,20.7
2017-12-11T05:04:12.618Z,20.67
2017-12-11T05:04:40.623Z,20.71
2017-12-11T05:05:08.747Z,20.7
2017-12-11T05:05:36.798Z,20.55
2017-12-11T05:06:04.921Z,20.56
2017-12-11T05:06:33.052Z,20.64
2017-12-11T05:07:00.972Z,20.6
2017-12-11T05:07:29.088Z,20.5
2017-12-11T05:07:57.192Z,20.5
2017-12-11T05:08:25.350Z,20.5
2017-12-11T05:08:53.461Z,20.46
2017-12-11T05:09:21.413Z,20.4
2017-12-11T05:09:49.553Z,20.42
2017-12-11T05:10:17.669Z,20.42
2017-12-11T05:10:45.671Z,20.29
2017-12-11T05:11:13.712Z,20.3
2017-12-11T05:11:41.871Z,20.37
2017-12-11T05:12:09.788Z,20.36
2017-12-11T05:12:37.787Z,20.29
2017-12-11T05:13:05.941Z,20.32
2017-12-11T05:13:34.067Z,20.19
2017-12-11T05:14:02.409Z,20.21
2017-12-11T05:14:30.451Z,20.26
2017-12-11T05:14:58.573Z,20.24
2017-12-11T05:15:26.698Z,20.26
2017-12-11T05:15:54.835Z,20.17
2017-12-11T05:16:22.756Z,20.24
2017-12-11T05:16:50.887Z,20.21
2017-12-11T05:17:18.890Z,20.18
2017-12-11T05:17:46.923Z,20.26
2017-12-11T05:18:15.171Z,20.14
2017-12-11T05:18:43.115Z,20.24
2017-12-11T05:19:11.133Z,20.15
2017-12-11T05:19:39.158Z,20.17
2017-12-11T05:20:07.112Z,20.19
2017-12-11T05:20:35.264Z,20.17
2017-12-11T05:21:03.388Z,20.14
2017-12-11T05:21:31.535Z,20.15
2017-12-11T05:21:59.650Z,20.18
2017-12-11T05:22:27.773Z,20.24
2017-12-11T05:22:55.890Z,20.24
2017-12-11T05:23:24.206Z,20.32
2017-12-11T05:23:52.216Z,20.24
2017-12-11T05:24:20.132Z,20.17
2017-12-11T05:24:48.274Z,20.22
2017-12-11T05:25:16.389Z,20.17
2017-12-11T05:25:44.498Z,20.24
2017-12-11T05:26:12.516Z,20.17
2017-12-11T05:26:40.600Z,20.14
2017-12-11T05:27:08.718Z,20.15
2017-12-11T05:27:36.856Z,20.24
2017-12-11T05:28:05.008Z,20.15
2017-12-11T05:28:33.139Z,20.17
2017-12-11T05:29:01.273Z,20.15
2017-12-11T05:29:29.420Z,20.17
2017-12-11T05:29:57.472Z,20.07
2017-12-11T05:30:25.473Z,20.21
2017-12-11T05:30:53.514Z,20.15
2017-12-11T05:31:21.631Z,20.11
2017-12-11T05:31:49.637Z,20.14
2017-12-11T05:32:17.766Z,20.12
2017-12-11T05:32:45.884Z,20.15
2017-12-11T05:33:14.004Z,20.12
2017-12-11T05:33:42.128Z,20.11
2017-12-11T05:34:10.254Z,20.15
2017-12-11T05:34:38.401Z,20.04
2017-12-11T05:35:06.483Z,20.15
2017-12-11T05:35:34.590Z,20.14
2017-12-11T05:36:02.727Z,20.11
2017-12-11T05:36:30.775Z,20.12
2017-12-11T05:36:58.884Z,20.1
2017-12-11T05:37:27.028Z,20.08
2017-12-11T05:37:54.985Z,20.08
2017-12-11T05:38:23.118Z,20.11
2017-12-11T05:38:51.266Z,20.12
2017-12-11T05:39:19.372Z,20.15
2017-12-11T05:39:47.451Z,20.14
2017-12-11T05:40:15.498Z,20.1
2017-12-11T05:40:43.512Z,20.12
2017-12-11T05:41:11.451Z,20.15
2017-12-11T05:41:39.475Z,20.14
2017-12-11T05:42:07.624Z,20.19
2017-12-11T05:42:35.788Z,20.14
2017-12-11T05:43:03.961Z,20.19
2017-12-11T05:43:32.086Z,20.17
2017-12-11T05:44:00.212Z,20.18
2017-12-11T05:44:28.275Z,20.32
2017-12-11T05:44:56.458Z,20.29
2017-12-11T05:45:24.534Z,20.22
2017-12-11T05:45:52.556Z,20.17
2017-12-11T05:46:20.682Z,20.19
2017-12-11T05:46:48.625Z,20.17
2017-12-11T05:47:16.750Z,20.17
2017-12-11T05:47:44.887Z,20.17
2017-12-11T05:48:12.925Z,20.18
2017-12-11T05:48:41.195Z,20.15
2017-12-11T05:49:09.330Z,20.18
2017-12-11T05:49:37.384Z,20.14
2017-12-11T05:50:05.403Z,20.14
2017-12-11T05:50:33.509Z,20.12
2017-12-11T05:51:01.646Z,20.12
2017-12-11T05:51:29.558Z,20.07
2017-12-11T05:51:57.705Z,20.07
2017-12-11T05:52:25.722Z,20.07
2017-12-11T05:52:53.862Z,20.08
2017-12-11T05:53:22.156Z,20.1
2017-12-11T05:53:50.263Z,20.08
2017-12-11T05:54:18.314Z,20.02
2017-12-11T05:54:46.458Z,20.04
2017-12-11T05:55:14.588Z,20.07
2017-12-11T05:55:42.692Z,20.08
2017-12-11T05:56:10.827Z,20.07
2017-12-11T05:56:38.924Z,20.07
2017-12-11T05:57:07.079Z,20.07
2017-12-11T05:57:35.225Z,19.97
2017-12-11T05:58:03.339Z,19.94
2017-12-11T05:58:31.365Z,19.97
2017-12-11T05:58:59.497Z,19.97
2017-12-11T05:59:27.633Z,19.93
2017-12-11T05:59:55.758Z,20.02
2017-12-11T06:00:23.850Z,19.94
2017-12-11T06:00:51.966Z,19.92
2017-12-11T06:01:19.988Z,19.97
2017-12-11T06:01:48.129Z,19.89
2017-12-11T06:02:16.274Z,19.93
2017-12-11T06:02:44.400Z,19.94
2017-12-11T06:03:12.535Z,19.97
2017-12-11T06:03:40.768Z,19.93